Airfield :
LOGIN :

Register | Disclaimer

   EN    FR    IT 

 










Legend :    VFR   Marginal VFR   IFR   Intensive IFR   Very Intensive IFR
Visi :
Ceiling :
>= 8 km
>= 3000ft
5 to 8 km
1000 to 3000 ft
1500m to 5 km
500 to 1000 ft
800 to 1500m
200 to 500 ft
< 800m
< 200 ft
Symbols :   Thunderstorms  Fog  Heavy snow  Heavy precipitations  Wind > 20 kt
SIGMETs :     Misc.  Thunderstorms  Icing  Turbulence  Mountain Waves  Volcanic Ashes






- Airport Elevation : 776 ft
- IATA code : RMS


ETAR - Ramstein Air Base

CURRENT METAR :
  • 151956Z AUTO 29003KT 9999 CLR 02/02 A2964 RMK AO2 SLP051 T00240024 $

EXPIRED METARs :
  • 151916Z AUTO 26003KT 9999 SCT023 04/03 A2963 RMK AO2 SLP046 $
  • 151856Z AUTO 29003KT 9999 BKN022 04/03 A2963 RMK AO2 SLP046 T00360033 $
  • 151756Z AUTO 00000KT 9999 OVC025 04/04 A2962 RMK AO2 SLP043 T00430039 10066 20037 52015 $

TAF TAF ETAR
Valid from the 15 at 18:00 until the 17 at 00:00 UTC


151800Z 1518/1624 VRB06KT 9999 BKN025 QNH2962INS
BECMG 1520/1521 VRB06KT 9999 FEW015 QNH2964INS
BECMG 1600/1601 VRB06KT 6000 BR SCT008 QNH2967INS
TEMPO 1603/1607 3200 BR
BECMG 1608/1609 VRB06KT 9999 NSW FEW015 SCT060 QNH2976INS
BECMG 1620/1621 VRB06KT 8000 BR BKN008 QNH2985INS TX05/1614Z TN00/1606Z



MET'MAP, your aeronautical weather chart ! - Copyright ORBIFLY December 2007 - Disclaimer

ORBIFLY MET'MAP TEAM :

Programming & Development : Alexandra Zaïnal
Concept & Development : Baudouin d'Aumeries
Co-Development & Prog : Marc-Olivier Méhu
Technical & hardware support : Manuel Goepfert

Contact : metmap@orbifly.com




SOURCES & CREDITS :

   NOAA